Barcelona Knutsen — EACW — position and weather

sailwx.info

Track history (hours):
 
Tides and Currents Weather Stations Pressure Air Temp Water Temp Dewpoint Dewpoint Depression Visibility Wind Speed Wind Dir Waves Ship Positions

Barcelona Knutsen

Last reported at 2016-Nov-21 10:33 UTC. Time now 2016-Dec-03 15:45 UTC.
Position N 29°40' E 122°32'.
Warning: this ship's position is 12 days out of date.

Length 290 m; draft 10 m.

Type: Tanker. MMSI: 224436000.

Date/timePositionNaut miles runAvg speedWind from/ knotsBaromVisibWave heightAir tempDewpointWater temp
2016-Nov-21 10:33N 29°40' E 122°32'2412.0
2016-Nov-21 08:33N 29°54' E 122°10'4 3.4
2016-Nov-21 07:21N 29°54' E 122°05'0 0.0
2016-Nov-21 05:33N 29°54' E 122°05'0 0.0
2016-Nov-21 04:33N 29°54' E 122°05'0 0.0
2016-Nov-21 02:33N 29°54' E 122°05'0 0.0
2016-Nov-20 16:30N 29°54' E 122°05'0 0.0
2016-Nov-20 14:24N 29°54' E 122°05'0 0.0
2016-Nov-20 13:30N 29°54' E 122°05'0 0.0
2016-Nov-20 12:34N 29°54' E 122°05'0 0.0
2016-Nov-20 09:30N 29°54' E 122°05'0 0.0
2016-Nov-20 08:30N 29°54' E 122°05'0 0.0
2016-Nov-20 07:27N 29°54' E 122°05'0 0.0
2016-Nov-20 06:30N 29°54' E 122°05'0 0.0
2016-Nov-20 05:30N 29°54' E 122°05'0 0.0
2016-Nov-20 04:30N 29°54' E 122°05'0 0.0
2016-Nov-20 03:30N 29°54' E 122°05'3 1.7
2016-Nov-20 01:33N 29°55' E 122°09'19 9.3
2016-Nov-19 23:33N 29°43' E 122°25'8 8.0
2016-Nov-19 22:33N 29°41' E 122°34'2 1.1
2016-Nov-19 20:30N 29°42' E 122°36'0 0.1
2016-Nov-19 19:33N 29°42' E 122°36'0 0.0
2016-Nov-19 17:33N 29°42' E 122°36'0 0.1
2016-Nov-19 16:30N 29°42' E 122°36'0 0.1
2016-Nov-19 14:30N 29°42' E 122°36'0 0.0
2016-Nov-19 11:18N 29°42' E 122°36'0 0.0
2016-Nov-19 09:24N 29°42' E 122°36'0 0.1
2016-Nov-19 07:24N 29°42' E 122°36'0 0.1
2016-Nov-19 03:12N 29°42' E 122°36'0 0.0
2016-Nov-19 02:12N 29°42' E 122°36'0 0.1
2016-Nov-19 01:24N 29°42' E 122°36'0 0.1
2016-Nov-19 00:30N 29°42' E 122°36'0 0.1
2016-Nov-18 23:30N 29°42' E 122°36'0 0.0
2016-Nov-18 20:30N 29°42' E 122°36'0 0.1
2016-Nov-18 18:19N 29°42' E 122°36'0 0.1
2016-Nov-18 17:30N 29°42' E 122°36'0 0.0
2016-Nov-18 14:12N 29°42' E 122°36'0 0.2
2016-Nov-18 12:30N 29°42' E 122°36'0 0.1
2016-Nov-18 11:30N 29°42' E 122°36'0 0.0
2016-Nov-18 09:30N 29°42' E 122°36'0 0.1
2016-Nov-18 07:30N 29°42' E 122°36'0 0.0
2016-Nov-18 05:24N 29°42' E 122°36'0 0.1
2016-Nov-18 04:24N 29°42' E 122°36'0 0.1
2016-Nov-18 01:30N 29°42' E 122°36'0 0.1
2016-Nov-18 00:30N 29°42' E 122°36'0 0.1
2016-Nov-17 23:30N 29°42' E 122°36'0 0.1
2016-Nov-17 22:30N 29°42' E 122°36'0 0.0
2016-Nov-17 21:30N 29°42' E 122°36'0 0.0
2016-Nov-17 19:18N 29°42' E 122°36'0 0.3
2016-Nov-17 18:30N 29°42' E 122°36'0 0.1
2016-Nov-17 14:24N 29°42' E 122°36'0 0.1
2016-Nov-17 12:30N 29°42' E 122°36'0 0.1
2016-Nov-17 11:30N 29°42' E 122°36'0 0.1
2016-Nov-17 08:24N 29°42' E 122°36'0 0.0
2016-Nov-17 02:32N 29°42' E 122°36'  
Track history (hours):
 
Tides and Currents Weather Stations Pressure Air Temp Water Temp Dewpoint Dewpoint Depression Visibility Wind Speed Wind Dir Waves Ship Positions

Barcelona Knutsen

Last reported at 2016-Nov-21 10:33 UTC. Time now 2016-Dec-03 15:45 UTC.
Position N 29°40' E 122°32'.
Warning: this ship's position is 12 days out of date.

Length 290 m; draft 10 m.

Type: Tanker. MMSI: 224436000.

Date/timePositionNaut miles runAvg speedWind from/ knotsBaromVisibWave heightAir tempDewpointWater temp
2016-Nov-21 10:33N 29°40' E 122°32'2412.0
2016-Nov-21 08:33N 29°54' E 122°10'4 3.4
2016-Nov-21 07:21N 29°54' E 122°05'0 0.0
2016-Nov-21 05:33N 29°54' E 122°05'0 0.0
2016-Nov-21 04:33N 29°54' E 122°05'0 0.0
2016-Nov-21 02:33N 29°54' E 122°05'0 0.0
2016-Nov-20 16:30N 29°54' E 122°05'0 0.0
2016-Nov-20 14:24N 29°54' E 122°05'0 0.0
2016-Nov-20 13:30N 29°54' E 122°05'0 0.0
2016-Nov-20 12:34N 29°54' E 122°05'0 0.0
2016-Nov-20 09:30N 29°54' E 122°05'0 0.0
2016-Nov-20 08:30N 29°54' E 122°05'0 0.0
2016-Nov-20 07:27N 29°54' E 122°05'0 0.0
2016-Nov-20 06:30N 29°54' E 122°05'0 0.0
2016-Nov-20 05:30N 29°54' E 122°05'0 0.0
2016-Nov-20 04:30N 29°54' E 122°05'0 0.0
2016-Nov-20 03:30N 29°54' E 122°05'3 1.7
2016-Nov-20 01:33N 29°55' E 122°09'19 9.3
2016-Nov-19 23:33N 29°43' E 122°25'8 8.0
2016-Nov-19 22:33N 29°41' E 122°34'2 1.1
2016-Nov-19 20:30N 29°42' E 122°36'0 0.1
2016-Nov-19 19:33N 29°42' E 122°36'0 0.0
2016-Nov-19 17:33N 29°42' E 122°36'0 0.1
2016-Nov-19 16:30N 29°42' E 122°36'0 0.1
2016-Nov-19 14:30N 29°42' E 122°36'0 0.0
2016-Nov-19 11:18N 29°42' E 122°36'0 0.0
2016-Nov-19 09:24N 29°42' E 122°36'0 0.1
2016-Nov-19 07:24N 29°42' E 122°36'0 0.1
2016-Nov-19 03:12N 29°42' E 122°36'0 0.0
2016-Nov-19 02:12N 29°42' E 122°36'0 0.1
2016-Nov-19 01:24N 29°42' E 122°36'0 0.1
2016-Nov-19 00:30N 29°42' E 122°36'0 0.1
2016-Nov-18 23:30N 29°42' E 122°36'0 0.0
2016-Nov-18 20:30N 29°42' E 122°36'0 0.1
2016-Nov-18 18:19N 29°42' E 122°36'0 0.1
2016-Nov-18 17:30N 29°42' E 122°36'0 0.0
2016-Nov-18 14:12N 29°42' E 122°36'0 0.2
2016-Nov-18 12:30N 29°42' E 122°36'0 0.1
2016-Nov-18 11:30N 29°42' E 122°36'0 0.0
2016-Nov-18 09:30N 29°42' E 122°36'0 0.1
2016-Nov-18 07:30N 29°42' E 122°36'0 0.0
2016-Nov-18 05:24N 29°42' E 122°36'0 0.1
2016-Nov-18 04:24N 29°42' E 122°36'0 0.1
2016-Nov-18 01:30N 29°42' E 122°36'0 0.1
2016-Nov-18 00:30N 29°42' E 122°36'0 0.1
2016-Nov-17 23:30N 29°42' E 122°36'0 0.1
2016-Nov-17 22:30N 29°42' E 122°36'0 0.0
2016-Nov-17 21:30N 29°42' E 122°36'0 0.0
2016-Nov-17 19:18N 29°42' E 122°36'0 0.3
2016-Nov-17 18:30N 29°42' E 122°36'0 0.1
2016-Nov-17 14:24N 29°42' E 122°36'0 0.1
2016-Nov-17 12:30N 29°42' E 122°36'0 0.1
2016-Nov-17 11:30N 29°42' E 122°36'0 0.1
2016-Nov-17 08:24N 29°42' E 122°36'0 0.0
2016-Nov-17 02:32N 29°42' E 122°36'  

Dump ship's entire track history